Thursday, October 18, 2018, 1:44 PM GMT
Back to Local

CYYY, Mont Joli, Que.

Location: , , Canada Lat: 48.6
Local Time: 1:44 PM GMT (13:44 GMT) Lon: -68.217
Time Zone: GMT Elev: 157 ft

Show me the last for .
Show Decoded

2018-10-18 13:00 METAR CYYY 181300Z 31022G29KT 30SM BKN045 OVC100 01/M06 A2976 RMK SC7AC1 SLP081
                 =
2018-10-18 12:00 METAR CYYY 181200Z 31024G33KT 30SM BKN040 OVC100 01/M06 A2973 RMK SC7AC1 SLP071
                 =
2018-10-18 11:16 METAR CYYY 181116Z 32027G34KT 30SM BKN044 OVC100 01/M06 A2970 RMK SC7AC1 SLP063
                 =
2018-10-18 11:00 METAR CYYY 181100Z 31027G36KT 30SM -SN BKN040 OVC050 01/M06 A2969 RMK SC7SC1
                 SLP060 =
2018-10-18 10:00 METAR CYYY 181000Z 31025G36KT 30SM -SN OVC030 01/M07 A2967 RMK SC8 SLP052 =
2018-10-18 09:26 METAR CYYY 180926Z 30027G34KT 30SM -SN OVC030 02/M07 A2966 RMK SC8 SLP047 =
2018-10-18 09:00 METAR CYYY 180900Z 31019G32KT 30SM OVC039 02/M05 A2964 RMK SC8 SLP041 =
2018-10-18 08:33 METAR CYYY 180833Z 28019G26KT 30SM OVC034 02/M04 A2963 RMK SC8 SLP037 =
2018-10-18 08:00 METAR CYYY 180800Z 28015G25KT 30SM -SN OVC030 02/M03 A2962 RMK SC8 SLP034 =
2018-10-18 07:55 METAR CYYY 180755Z 28019G24KT 30SM -SN OVC030 02/M04 A2962 RMK SC8 SLP034 =
2018-10-18 07:26 METAR CYYY 180726Z 29018G25KT 30SM OVC041 02/M04 A2961 RMK SC8 SLP030 =
2018-10-18 07:03 METAR CYYY 180703Z 28018G23KT 30SM -SN OVC038 02/M04 A2961 RMK SC8 SLP029 =
2018-10-18 07:00 METAR CYYY 180700Z 28017G24KT 30SM OVC036 02/M04 A2961 RMK SC8 SLP029 =
2018-10-18 06:00 METAR CYYY 180600Z 28016G24KT 30SM OVC038 02/M04 A2960 RMK SC8 SLP028 =
2018-10-18 05:00 METAR CYYY 180500Z 28016KT 30SM OVC039 02/M04 A2960 RMK SC8 SLP026 =
2018-10-18 04:00 METAR CYYY 180400Z 28016KT 30SM OVC037 03/M03 A2959 RMK SC8 SLP023 =
2018-10-18 03:00 METAR CYYY 180300Z 30015G22KT 30SM SCT028 BKN071 03/M02 A2958 RMK SC4AC3 SLP019
                 =
2018-10-18 02:00 METAR CYYY 180200Z 25016G21KT 30SM BKN034 04/M01 A2956 RMK SC7 SLP015 =
2018-10-18 01:00 METAR CYYY 180100Z 26012G18KT 30SM BKN054 04/00 A2956 RMK SC7 SLP012 =
2018-10-18 00:00 METAR CYYY 180000Z 26013G18KT 30SM BKN079 04/00 A2954 RMK AC5 SLP007 =
2018-10-17 23:00 METAR CYYY 172300Z 25014G21KT 30SM BKN078 05/01 A2953 RMK AC6 SLP004 =
2018-10-17 22:00 METAR CYYY 172200Z 24010KT 30SM FEW040 BKN120 04/01 A2951 RMK SC2AC5 SLP996 =
2018-10-17 21:00 METAR CYYY 172100Z 24012G20KT 30SM SCT036 BKN090 05/02 A2949 RMK SC4AC3 SLP989 =
2018-10-17 20:14 METAR CYYY 172014Z 24012G17KT 30SM SCT030 BKN060 BKN100 06/03 A2948 RMK
                 SC3SC3AC1 SLP987 =
2018-10-17 20:00 METAR CYYY 172000Z 23012G17KT 30SM -RA BKN055 BKN080 06/03 A2948 RMK SC5AC2
                 SLP986 =
2018-10-17 19:00 METAR CYYY 171900Z 22009KT 15SM -RA BKN020 BKN060 07/04 A2947 RMK SC6SC1 SLP982
                 =
2018-10-17 18:55 METAR CYYY 171855Z 21009KT 15SM -RA BKN025 BKN080 07/04 A2947 RMK SC6AC1 SLP982
                 =
2018-10-17 18:37 METAR CYYY 171837Z 21008KT 15SM BKN022 BKN055 07/04 A2947 RMK SC5SC2 SLP982 =
2018-10-17 18:00 METAR CYYY 171800Z 20008KT 15SM -RA OVC028 06/04 A2948 RMK SC8 SLP986 =
2018-10-17 17:00 METAR CYYY 171700Z 20013KT 15SM -RA OVC042 05/03 A2950 RMK SC8 SLP994 =
2018-10-17 16:00 METAR CYYY 171600Z CCA 21014G19KT 15SM -RA FEW020 06/03 A2952 RMK SC1 SC TR
                 SLP001 =
2018-10-17 15:51 METAR CYYY 171551Z 21014G21KT 15SM -RA BKN025 OVC045 07/02 A2953 RMK SC5SC3
                 SLP002 =
2018-10-17 15:00 METAR CYYY 171500Z 21014KT 15SM BKN055 OVC080 06/02 A2954 RMK SC5AC3 SLP007 =
2018-10-17 14:38 METAR CYYY 171438Z 19011G21KT 15SM BKN055 OVC090 06/02 A2954 RMK SC6AC2 SLP008 =
2018-10-17 14:00 METAR CYYY 171400Z 20014G20KT 15SM BKN057 OVC080 05/02 A2956 RMK SC6AC2 SLP013 =

Support USWX by starting your Amazon purchase here.